Time;durP1;ratioP1;P1;durP2;ratioP2;P2;SDS_P1;SDS_P2;PMS_P1;PMS_P2;Temp;Humidity;BMP_temperature;BMP_pressure;BME280_temperature;BME280_humidity;BME280_pressure;Samples;Min_cycle;Max_cycle;Signal;HPM_P1;HPM_P2
2022/09/02 00:03:40;;;;;;;3.53;1.95;;;12.70;99.90;;;;;;20658510;28;20121;-58
2022/09/02 00:13:44;;;;;;;2.55;1.83;;;12.80;99.90;;;;;;20637561;28;20046;-59
2022/09/02 00:23:48;;;;;;;1.73;1.45;;;12.70;99.90;;;;;;20698410;28;20165;-53
2022/09/02 00:33:52;;;;;;;3.03;2.72;;;12.70;99.90;;;;;;20643729;28;20038;-54
2022/09/02 00:44:01;;;;;;;4.88;2.78;;;12.70;99.90;;;;;;20634857;28;20039;-57
2022/09/02 00:54:05;;;;;;;2.30;2.10;;;12.60;99.90;;;;;;20632754;28;20149;-58
2022/09/02 01:04:09;;;;;;;4.80;2.30;;;12.60;99.90;;;;;;20631389;28;20451;-54
2022/09/02 01:14:12;;;;;;;4.25;2.60;;;12.60;99.90;;;;;;20630660;28;20109;-58
2022/09/02 01:24:19;;;;;;;3.22;2.92;;;12.60;99.90;;;;;;20611647;28;20109;-50
2022/09/02 01:34:22;;;;;;;5.93;2.83;;;12.50;99.90;;;;;;20629954;28;20038;-58
2022/09/02 01:44:26;;;;;;;4.70;2.83;;;12.50;99.90;;;;;;20632384;28;20109;-52
2022/09/02 01:54:30;;;;;;;3.05;2.38;;;12.40;99.90;;;;;;20629679;28;20101;-58
2022/09/02 02:04:33;;;;;;;3.40;2.42;;;12.30;99.90;;;;;;20614502;28;20098;-58
2022/09/02 02:14:36;;;;;;;4.22;3.00;;;12.20;99.90;;;;;;20612623;28;20042;-53
2022/09/02 02:24:40;;;;;;;3.22;2.92;;;12.20;99.90;;;;;;20636962;28;20086;-58
2022/09/02 02:34:43;;;;;;;8.50;3.40;;;12.00;99.90;;;;;;20635204;28;20395;-54
2022/09/02 02:44:46;;;;;;;3.92;3.50;;;12.00;99.90;;;;;;20652426;28;20648;-58
2022/09/02 02:54:49;;;;;;;3.80;3.35;;;12.20;99.90;;;;;;20729572;28;20038;-53
2022/09/02 03:04:53;;;;;;;5.00;4.47;;;12.20;99.90;;;;;;20699769;28;20034;-53
2022/09/02 03:14:57;;;;;;;6.32;4.20;;;12.00;99.90;;;;;;20690053;28;20046;-51
2022/09/02 03:25:01;;;;;;;5.55;4.97;;;11.80;99.90;;;;;;20676399;28;20033;-51
2022/09/02 03:35:07;;;;;;;5.25;4.15;;;11.60;99.90;;;;;;20692634;28;20100;-53
2022/09/02 03:45:14;;;;;;;5.63;4.10;;;11.30;99.90;;;;;;20714695;28;20046;-52
2022/09/02 03:55:18;;;;;;;6.55;5.30;;;10.90;99.90;;;;;;20731438;28;20033;-56
2022/09/02 04:05:23;;;;;;;5.30;4.70;;;10.60;99.90;;;;;;20747293;28;20486;-52
2022/09/02 04:15:29;;;;;;;5.90;5.00;;;10.40;99.90;;;;;;20726317;28;20482;-58
2022/09/02 04:25:33;;;;;;;6.57;4.85;;;10.30;99.90;;;;;;20713254;28;20105;-58
2022/09/02 04:35:43;;;;;;;5.80;4.50;;;10.40;99.90;;;;;;20761508;28;20093;-52
2022/09/02 04:45:46;;;;;;;8.00;4.03;;;10.60;99.90;;;;;;20728102;28;20058;-58
2022/09/02 04:55:51;;;;;;;4.70;4.18;;;10.80;99.90;;;;;;20739136;28;20165;-53
2022/09/02 05:06:00;;;;;;;6.28;3.70;;;11.00;99.90;;;;;;20739275;28;20026;-53
2022/09/02 05:16:05;;;;;;;4.72;3.92;;;11.20;99.90;;;;;;20726041;28;20127;-53
2022/09/02 05:26:11;;;;;;;5.10;3.70;;;11.40;99.90;;;;;;20737265;28;20026;-58
2022/09/02 05:36:19;;;;;;;3.05;2.70;;;11.60;99.90;;;;;;20708540;28;20037;-53
2022/09/02 05:46:25;;;;;;;2.78;2.35;;;12.10;99.90;;;;;;20726080;28;20462;-58
2022/09/02 05:56:30;;;;;;;4.68;2.50;;;12.60;99.90;;;;;;20737430;28;20030;-58
2022/09/02 06:06:37;;;;;;;2.55;2.35;;;13.00;99.90;;;;;;20801274;28;20037;-53
2022/09/02 06:16:43;;;;;;;2.55;2.35;;;13.30;99.90;;;;;;20764769;28;20068;-57
2022/09/02 06:26:53;;;;;;;3.88;1.90;;;13.60;99.90;;;;;;20733090;28;20033;-54
2022/09/02 06:36:56;;;;;;;4.47;2.08;;;14.20;99.90;;;;;;20744656;28;20049;-58
2022/09/02 06:47:01;;;;;;;2.35;1.70;;;15.20;99.90;;;;;;20749597;28;20053;-59
2022/09/02 06:57:04;;;;;;;1.80;1.70;;;16.10;99.90;;;;;;20740256;28;20394;-58
2022/09/02 07:07:08;;;;;;;3.42;2.05;;;15.70;99.90;;;;;;20757570;28;20033;-59
2022/09/02 07:17:21;;;;;;;3.15;1.95;;;16.50;99.90;;;;;;20759127;28;20060;-58
2022/09/02 07:27:28;;;;;;;3.00;1.45;;;16.50;99.90;;;;;;20729772;28;20092;-55
2022/09/02 07:37:36;;;;;;;1.80;1.50;;;16.10;99.90;;;;;;20753120;28;20435;-52
2022/09/02 07:47:44;;;;;;;2.05;1.50;;;15.80;99.90;;;;;;20737876;28;20112;-53
2022/09/02 07:57:50;;;;;;;2.65;1.50;;;15.70;99.90;;;;;;20751511;28;20033;-52
2022/09/02 08:07:52;;;;;;;3.15;1.40;;;15.50;99.90;;;;;;20746926;28;20379;-54
2022/09/02 08:17:58;;;;;;;1.63;1.45;;;15.40;99.90;;;;;;20728326;28;20478;-54
2022/09/02 08:28:01;;;;;;;2.88;1.55;;;15.70;99.90;;;;;;20782709;28;20436;-55
2022/09/02 08:38:04;;;;;;;2.08;1.70;;;16.50;99.90;;;;;;20727804;28;20034;-59
2022/09/02 08:48:22;;;;;;;3.70;2.08;;;17.10;99.90;;;;;;20747591;28;20116;-54
2022/09/02 08:58:32;;;;;;;3.47;2.15;;;17.10;99.90;;;;;;20716029;28;20104;-55
2022/09/02 09:09:04;;;;;;;2.22;2.03;;;17.30;99.90;;;;;;20752789;28;20079;-54
2022/09/02 09:19:58;;;;;;;1.67;1.58;;;17.90;99.90;;;;;;20720839;28;20038;-51
2022/09/02 09:30:01;;;;;;;2.90;1.48;;;18.20;99.90;;;;;;20473851;28;20121;-59
2022/09/02 09:40:26;;;;;;;2.28;1.70;;;18.30;99.90;;;;;;20507094;28;20047;-54
2022/09/02 09:50:28;;;;;;;3.25;2.00;;;17.80;99.90;;;;;;20504562;28;20047;-59
2022/09/02 10:00:33;;;;;;;4.38;2.47;;;17.50;99.90;;;;;;20560295;28;20108;-59
2022/09/02 10:10:35;;;;;;;2.72;2.13;;;17.50;99.90;;;;;;20702891;28;20414;-53
2022/09/02 10:21:05;;;;;;;2.70;2.20;;;18.30;99.90;;;;;;20713656;28;20104;-59
2022/09/02 10:31:51;;;;;;;2.88;2.53;;;18.90;99.90;;;;;;20731982;28;20061;-59
2022/09/02 10:42:22;;;;;;;2.75;2.40;;;18.60;99.90;;;;;;20736790;28;20034;-54
2022/09/02 10:52:56;;;;;;;3.30;2.88;;;18.00;99.90;;;;;;20756396;28;20570;-59
2022/09/02 11:03:19;;;;;;;3.67;3.22;;;18.00;99.90;;;;;;20752324;28;20045;-58
2022/09/02 11:13:46;;;;;;;3.55;2.65;;;19.10;99.90;;;;;;20752269;28;20038;-53
2022/09/02 11:24:10;;;;;;;3.45;2.28;;;19.90;99.90;;;;;;20750535;28;20037;-54
2022/09/02 11:34:36;;;;;;;6.10;3.05;;;20.50;99.90;;;;;;20749377;28;20433;-52
2022/09/02 11:44:45;;;;;;;3.10;2.80;;;20.90;99.90;;;;;;20715743;28;20096;-55
2022/09/02 11:55:01;;;;;;;4.30;3.40;;;20.80;99.90;;;;;;20663272;28;20047;-51
2022/09/02 12:05:28;;;;;;;4.38;3.33;;;20.10;99.90;;;;;;20664258;28;20113;-53
2022/09/02 12:15:31;;;;;;;4.07;3.53;;;19.90;99.90;;;;;;20647185;28;20035;-58
2022/09/02 12:25:37;;;;;;;3.50;2.88;;;20.70;99.90;;;;;;20657699;28;20038;-52
2022/09/02 12:35:40;;;;;;;3.28;2.90;;;21.70;99.90;;;;;;20661300;28;20088;-55
2022/09/02 12:45:44;;;;;;;3.30;2.60;;;22.90;99.70;;;;;;20667455;28;20379;-55
2022/09/02 12:55:56;;;;;;;3.17;2.85;;;22.70;99.90;;;;;;20739916;28;20104;-56
2022/09/02 13:06:36;;;;;;;4.03;3.47;;;22.90;95.70;;;;;;20750124;28;20038;-57
2022/09/02 13:17:10;;;;;;;4.68;3.08;;;22.90;99.00;;;;;;20721425;28;20058;-54
2022/09/02 13:27:38;;;;;;;4.18;3.60;;;21.40;99.80;;;;;;20721734;28;20041;-54
2022/09/02 13:37:44;;;;;;;4.30;3.90;;;21.10;99.90;;;;;;20476291;28;20055;-60
2022/09/02 13:47:59;;;;;;;9.27;4.03;;;21.30;99.90;;;;;;20507128;28;20051;-56
2022/09/02 13:58:07;;;;;;;4.80;4.30;;;22.10;99.90;;;;;;20498905;28;20419;-55
2022/09/02 14:08:21;;;;;;;6.83;5.27;;;22.30;99.90;;;;;;20539278;28;20112;-54
2022/09/02 14:18:24;;;;;;;6.85;5.22;;;20.60;99.90;;;;;;20712594;28;20482;-55
2022/09/02 14:28:30;;;;;;;5.93;4.75;;;19.70;99.90;;;;;;20752234;28;20045;-55
2022/09/02 14:38:54;;;;;;;5.68;5.18;;;19.60;99.90;;;;;;20749632;28;20557;-55
2022/09/02 14:49:08;;;;;;;6.95;6.35;;;19.10;99.90;;;;;;20752910;28;20046;-54
2022/09/02 14:59:10;;;;;;;8.50;5.93;;;18.40;99.90;;;;;;20766120;28;20665;-52
2022/09/02 15:09:14;;;;;;;6.60;5.95;;;18.80;99.90;;;;;;20734695;28;20037;-54
2022/09/02 15:19:17;;;;;;;8.45;6.07;;;19.00;99.90;;;;;;20746624;28;20045;-53
2022/09/02 15:29:20;;;;;;;6.25;5.32;;;18.70;99.90;;;;;;20747429;28;20431;-54
2022/09/02 15:39:24;;;;;;;8.32;6.00;;;18.40;99.90;;;;;;20732805;28;20034;-53
2022/09/02 15:49:27;;;;;;;6.20;5.60;;;18.30;99.90;;;;;;20750736;28;20453;-51
2022/09/02 15:59:29;;;;;;;6.28;5.68;;;18.00;99.90;;;;;;20748305;28;20060;-53
2022/09/02 16:09:32;;;;;;;7.30;6.53;;;17.60;99.90;;;;;;20727123;28;20084;-53
2022/09/02 16:19:34;;;;;;;8.00;6.00;;;17.50;99.90;;;;;;20778094;28;20033;-58
2022/09/02 16:29:38;;;;;;;8.38;7.32;;;17.20;99.90;;;;;;20775661;28;20692;-59
2022/09/02 16:39:41;;;;;;;8.43;6.93;;;16.90;99.90;;;;;;20789382;28;20475;-56
2022/09/02 16:49:45;;;;;;;6.30;5.53;;;16.60;99.90;;;;;;20726295;28;20097;-50
2022/09/02 16:59:48;;;;;;;7.55;6.85;;;16.30;99.90;;;;;;20763626;28;20096;-49
2022/09/02 17:09:51;;;;;;;7.47;6.72;;;16.10;99.90;;;;;;20738841;28;20038;-53
2022/09/02 17:19:53;;;;;;;10.23;8.30;;;16.00;99.90;;;;;;20722053;28;20183;-53
2022/09/02 17:29:57;;;;;;;11.10;8.70;;;15.50;99.90;;;;;;20734404;28;20557;-58
2022/09/02 17:40:00;;;;;;;11.52;9.45;;;14.80;99.90;;;;;;20721066;28;20038;-59
2022/09/02 17:50:04;;;;;;;13.15;10.63;;;14.10;99.90;;;;;;20743315;28;20577;-58
2022/09/02 18:00:14;;;;;;;12.45;9.88;;;13.70;99.90;;;;;;20723682;28;20104;-51
2022/09/02 18:10:17;;;;;;;10.98;9.10;;;13.80;99.90;;;;;;20748580;28;20042;-51
2022/09/02 18:20:41;;;;;;;8.50;7.70;;;14.00;99.90;;;;;;20738941;28;20037;-52
2022/09/02 18:31:02;;;;;;;9.25;7.53;;;14.10;99.90;;;;;;20738053;28;20096;-52
2022/09/02 18:41:21;;;;;;;7.78;6.85;;;14.10;99.90;;;;;;20718568;28;20479;-58
2022/09/02 18:51:30;;;;;;;8.95;8.05;;;14.10;99.90;;;;;;20741054;28;20561;-49
2022/09/02 19:01:45;;;;;;;9.00;8.10;;;14.10;99.90;;;;;;20764753;28;20069;-61
2022/09/02 19:11:48;;;;;;;9.07;6.95;;;14.00;99.90;;;;;;20750620;28;20100;-51
2022/09/02 19:21:56;;;;;;;7.72;6.30;;;14.00;99.90;;;;;;20747704;28;20092;-53
2022/09/02 19:31:59;;;;;;;8.25;7.45;;;14.00;99.90;;;;;;20731456;28;20038;-52
2022/09/02 19:42:06;;;;;;;8.20;7.30;;;14.00;99.90;;;;;;20729946;28;20033;-53
2022/09/02 19:52:11;;;;;;;9.80;7.07;;;13.90;99.90;;;;;;20745032;28;20081;-52
2022/09/02 20:02:14;;;;;;;7.15;6.45;;;14.00;99.90;;;;;;20731274;28;20038;-52
2022/09/02 20:12:17;;;;;;;8.13;7.30;;;14.00;99.90;;;;;;20743615;28;20387;-53
2022/09/02 20:22:21;;;;;;;10.15;7.65;;;14.00;99.90;;;;;;20732106;28;20034;-50
2022/09/02 20:32:30;;;;;;;10.40;8.10;;;14.00;99.90;;;;;;20746540;28;20088;-50
2022/09/02 20:42:56;;;;;;;10.10;8.38;;;13.80;99.90;;;;;;20742909;28;20038;-48
2022/09/02 20:53:35;;;;;;;12.70;10.07;;;13.30;99.90;;;;;;20751974;28;20046;-58
2022/09/02 21:03:53;;;;;;;12.65;10.90;;;12.80;99.90;;;;;;20755677;28;20041;-50
2022/09/02 21:14:06;;;;;;;14.30;12.13;;;12.30;99.90;;;;;;20723702;28;20124;-51
2022/09/02 21:24:16;;;;;;;17.75;13.70;;;12.10;99.90;;;;;;20737039;28;20033;-51
2022/09/02 21:34:36;;;;;;;15.60;12.13;;;12.10;99.90;;;;;;20722484;28;20360;-58
2022/09/02 21:44:51;;;;;;;;;;;12.00;99.90;;;;;;20736010;28;20029;-58
2022/09/02 21:54:59;;;;;;;16.10;13.10;;;12.10;99.90;;;;;;20720394;28;19975;-50
2022/09/02 22:05:27;;;;;;;16.60;13.95;;;11.90;99.90;;;;;;20719528;28;20034;-58
2022/09/02 22:15:54;;;;;;;19.83;15.63;;;11.70;99.90;;;;;;20718793;28;20065;-52
2022/09/02 22:26:19;;;;;;;20.92;15.00;;;11.40;99.90;;;;;;20719470;28;20103;-52
2022/09/02 22:36:33;;;;;;;19.67;16.02;;;11.30;99.90;;;;;;20721421;28;20038;-52
2022/09/02 22:57:41;;;;;;;17.50;14.50;;;11.60;99.90;;;;;;20717935;28;20092;-55
2022/09/02 23:07:43;;;;;;;15.80;14.05;;;11.70;99.90;;;;;;20749271;28;20352;-59
2022/09/02 23:18:11;;;;;;;16.33;12.93;;;11.90;99.90;;;;;;20737975;28;20041;-52
2022/09/02 23:28:30;;;;;;;11.93;10.63;;;12.20;99.90;;;;;;20699153;28;20096;-52
2022/09/02 23:39:06;;;;;;;14.30;11.27;;;12.40;99.90;;;;;;20729678;28;20038;-53
2022/09/02 23:49:30;;;;;;;11.88;10.68;;;12.50;99.90;;;;;;20471966;28;20112;-53
